createdAt,value
2022-10-13T00:00:03.922Z,2.30
2022-10-13T00:02:05.359Z,2.00
2022-10-13T00:04:06.963Z,2.05
2022-10-13T00:06:09.601Z,2.10
2022-10-13T00:08:12.210Z,4.57
2022-10-13T00:10:13.638Z,3.00
2022-10-13T00:12:15.511Z,2.90
2022-10-13T00:14:17.261Z,3.50
2022-10-13T00:16:19.873Z,3.03
2022-10-13T00:18:22.224Z,3.00
2022-10-13T00:20:23.936Z,3.28
2022-10-13T00:22:27.290Z,2.85
2022-10-13T00:24:28.742Z,3.15
2022-10-13T00:26:30.181Z,3.55
2022-10-13T00:28:31.640Z,2.70
2022-10-13T00:30:36.992Z,3.83
2022-10-13T00:32:38.434Z,2.53
2022-10-13T00:34:39.854Z,2.53
2022-10-13T00:36:41.282Z,3.83
2022-10-13T00:38:42.772Z,3.83
2022-10-13T00:40:52.671Z,3.35
2022-10-13T00:42:54.059Z,2.40
2022-10-13T00:45:20.140Z,2.88
2022-10-13T00:47:21.753Z,2.33
2022-10-13T00:49:23.487Z,2.90
2022-10-13T00:51:26.902Z,3.97
2022-10-13T00:53:30.999Z,2.58
2022-10-13T00:57:34.031Z,2.45
2022-10-13T00:59:36.066Z,2.28
2022-10-13T01:01:38.014Z,2.33
2022-10-13T01:03:39.475Z,2.80
2022-10-13T01:05:41.607Z,2.97
2022-10-13T01:07:44.723Z,3.55
2022-10-13T01:09:47.281Z,3.60
2022-10-13T01:11:58.375Z,5.53
2022-10-13T01:14:20.540Z,3.05
2022-10-13T01:16:30.886Z,3.28
2022-10-13T01:18:42.106Z,3.33
2022-10-13T01:21:02.238Z,3.25
2022-10-13T01:23:16.527Z,3.45
2022-10-13T01:25:17.944Z,3.63
2022-10-13T01:27:28.175Z,3.70
2022-10-13T01:29:45.672Z,3.50
2022-10-13T01:31:47.131Z,3.72
2022-10-13T01:34:01.250Z,3.15
2022-10-13T01:36:06.714Z,4.18
2022-10-13T01:38:14.148Z,4.57
2022-10-13T01:40:21.864Z,4.63
2022-10-13T01:42:30.380Z,3.05
2022-10-13T01:44:36.912Z,3.70
2022-10-13T01:46:39.516Z,3.95
2022-10-13T01:48:42.756Z,3.35
2022-10-13T01:50:44.619Z,3.10
2022-10-13T01:52:47.010Z,3.05
2022-10-13T01:54:52.106Z,3.10
2022-10-13T01:56:54.120Z,2.58
2022-10-13T01:58:56.536Z,3.65
2022-10-13T02:01:10.574Z,3.22
2022-10-13T02:03:28.136Z,2.88
2022-10-13T02:05:50.348Z,2.97
2022-10-13T02:08:06.581Z,2.75
2022-10-13T02:10:16.341Z,2.33
2022-10-13T02:12:29.530Z,2.10
2022-10-13T02:14:34.529Z,2.60
2022-10-13T02:16:41.168Z,2.00
2022-10-13T02:18:45.547Z,2.45
2022-10-13T02:20:49.464Z,1.85
2022-10-13T02:22:56.713Z,2.38
2022-10-13T02:25:00.365Z,1.75
2022-10-13T02:27:04.375Z,2.28
2022-10-13T02:31:10.382Z,2.20
2022-10-13T02:33:12.308Z,2.42
2022-10-13T02:35:13.831Z,2.05
2022-10-13T02:37:15.413Z,2.53
2022-10-13T02:39:17.913Z,2.10
2022-10-13T02:41:19.340Z,2.20
2022-10-13T02:43:21.035Z,2.42
2022-10-13T02:45:22.551Z,2.30
2022-10-13T02:47:24.040Z,2.17
2022-10-13T02:49:25.545Z,2.22
2022-10-13T02:51:27.187Z,2.85
2022-10-13T02:53:28.662Z,3.22
2022-10-13T02:55:30.174Z,3.05
2022-10-13T02:57:31.603Z,3.25
2022-10-13T02:59:33.021Z,2.72
2022-10-13T03:01:35.833Z,2.78
2022-10-13T03:03:37.567Z,2.60
2022-10-13T03:05:39.073Z,2.90
2022-10-13T03:07:40.644Z,3.53
2022-10-13T03:09:42.304Z,2.90
2022-10-13T03:11:43.763Z,2.90
2022-10-13T03:13:45.202Z,2.78
2022-10-13T03:15:47.623Z,2.60
2022-10-13T03:17:49.363Z,2.53
2022-10-13T03:19:50.854Z,2.58
2022-10-13T03:21:52.587Z,2.05
2022-10-13T03:23:54.105Z,3.13
2022-10-13T03:25:55.671Z,2.08
2022-10-13T03:27:57.206Z,2.10
2022-10-13T03:29:58.644Z,2.15
2022-10-13T03:32:00.303Z,2.40
2022-10-13T03:34:01.753Z,1.75
2022-10-13T03:36:04.602Z,3.05
2022-10-13T03:38:06.288Z,2.08
2022-10-13T03:40:08.163Z,2.08
2022-10-13T03:42:10.217Z,2.17
2022-10-13T03:44:13.229Z,2.13
2022-10-13T03:46:15.834Z,2.03
2022-10-13T03:48:17.235Z,3.00
2022-10-13T03:50:18.761Z,2.05
2022-10-13T03:52:20.526Z,2.38
2022-10-13T03:54:22.784Z,2.97
2022-10-13T03:56:25.471Z,2.38
2022-10-13T03:58:29.147Z,1.98
2022-10-13T04:00:30.599Z,3.30
2022-10-13T04:02:31.991Z,3.08
2022-10-13T04:04:33.577Z,4.07
2022-10-13T04:06:35.005Z,3.22
2022-10-13T04:08:36.962Z,3.03
2022-10-13T04:10:38.972Z,3.10
2022-10-13T04:12:40.409Z,3.28
2022-10-13T04:14:42.083Z,3.10
2022-10-13T04:16:43.487Z,3.28
2022-10-13T04:18:45.676Z,3.35
2022-10-13T04:20:47.348Z,3.25
2022-10-13T04:22:48.803Z,2.95
2022-10-13T04:24:50.184Z,3.78
2022-10-13T04:26:51.803Z,3.92
2022-10-13T04:28:55.531Z,3.45
2022-10-13T04:30:58.490Z,3.20
2022-10-13T04:32:59.875Z,3.53
2022-10-13T04:35:01.354Z,2.42
2022-10-13T04:37:02.727Z,2.42
2022-10-13T04:39:04.610Z,2.35
2022-10-13T04:41:06.695Z,2.33
2022-10-13T04:43:08.123Z,3.15
2022-10-13T04:45:09.795Z,2.58
2022-10-13T04:47:11.211Z,2.63
2022-10-13T04:49:12.735Z,3.22
2022-10-13T04:51:15.702Z,3.53
2022-10-13T04:53:19.305Z,4.00
2022-10-13T04:55:20.979Z,3.95
2022-10-13T04:57:22.511Z,3.70
2022-10-13T04:59:24.275Z,3.78
2022-10-13T05:01:26.156Z,3.17
2022-10-13T05:03:27.874Z,3.10
2022-10-13T05:05:30.943Z,3.38
2022-10-13T05:07:34.871Z,4.03
2022-10-13T05:09:38.313Z,2.55
2022-10-13T05:11:41.835Z,3.58
2022-10-13T05:13:44.718Z,2.83
2022-10-13T05:15:47.992Z,3.58
2022-10-13T05:17:51.421Z,2.97
2022-10-13T05:19:54.754Z,3.45
2022-10-13T05:21:58.010Z,3.00
2022-10-13T05:24:03.288Z,4.70
2022-10-13T05:26:07.281Z,3.97
2022-10-13T05:28:10.377Z,4.53
2022-10-13T05:30:13.626Z,4.23
2022-10-13T05:32:16.953Z,3.40
2022-10-13T05:34:18.735Z,3.42
2022-10-13T05:36:21.661Z,3.45
2022-10-13T05:38:26.075Z,3.42
2022-10-13T05:40:28.511Z,4.15
2022-10-13T05:42:30.086Z,3.67
2022-10-13T05:44:31.505Z,3.78
2022-10-13T05:46:33.159Z,3.30
2022-10-13T05:48:34.587Z,4.18
2022-10-13T05:50:37.312Z,4.00
2022-10-13T05:52:38.901Z,4.07
2022-10-13T05:54:42.540Z,4.85
2022-10-13T05:56:56.378Z,3.83
2022-10-13T05:59:00.943Z,4.22
2022-10-13T06:01:05.446Z,3.78
2022-10-13T06:03:12.844Z,3.40
2022-10-13T06:05:16.099Z,3.17
2022-10-13T06:07:18.038Z,3.58
2022-10-13T06:09:19.644Z,3.78
2022-10-13T06:11:21.119Z,3.38
2022-10-13T06:13:22.528Z,3.67
2022-10-13T06:15:28.001Z,4.95
2022-10-13T06:17:30.160Z,3.83
2022-10-13T06:19:31.820Z,3.65
2022-10-13T06:21:36.420Z,3.55
2022-10-13T06:23:38.330Z,3.45
2022-10-13T06:25:47.538Z,3.75
2022-10-13T06:27:48.950Z,3.40
2022-10-13T06:29:50.593Z,4.18
2022-10-13T06:31:52.275Z,3.15
2022-10-13T06:33:53.820Z,3.90
2022-10-13T06:35:55.620Z,3.83
2022-10-13T06:37:57.348Z,3.75
2022-10-13T06:39:58.848Z,3.17
2022-10-13T06:42:00.621Z,2.90
2022-10-13T06:44:02.112Z,3.33
2022-10-13T06:46:04.575Z,2.72
2022-10-13T06:48:06.153Z,3.13
2022-10-13T06:50:07.727Z,2.75
2022-10-13T06:52:09.502Z,2.72
2022-10-13T06:54:11.216Z,2.92
2022-10-13T06:56:12.668Z,3.13
2022-10-13T06:58:14.396Z,2.67
2022-10-13T07:00:15.930Z,2.83
2022-10-13T07:02:17.641Z,2.88
2022-10-13T07:04:19.297Z,2.55
2022-10-13T07:06:21.125Z,2.63
2022-10-13T07:08:22.636Z,3.13
2022-10-13T07:10:24.174Z,3.47
2022-10-13T07:12:25.642Z,3.05
2022-10-13T07:14:27.325Z,3.17
2022-10-13T07:16:28.744Z,3.03
2022-10-13T07:18:31.646Z,2.85
2022-10-13T07:20:33.534Z,2.78
2022-10-13T07:22:34.991Z,2.30
2022-10-13T07:24:36.499Z,3.00
2022-10-13T07:26:37.933Z,3.60
2022-10-13T07:28:39.951Z,2.40
2022-10-13T07:30:41.481Z,2.28
2022-10-13T07:32:43.124Z,2.25
2022-10-13T07:34:44.578Z,2.40
2022-10-13T07:36:46.113Z,2.28
2022-10-13T07:38:47.575Z,3.22
2022-10-13T07:40:49.197Z,2.53
2022-10-13T07:42:50.726Z,2.25
2022-10-13T07:44:52.375Z,2.33
2022-10-13T07:46:53.829Z,2.53
2022-10-13T07:48:55.722Z,3.05
2022-10-13T07:50:57.487Z,2.13
2022-10-13T07:52:59.010Z,2.30
2022-10-13T07:55:00.590Z,2.63
2022-10-13T07:57:03.210Z,2.53
2022-10-13T07:59:05.470Z,3.15
2022-10-13T08:01:07.577Z,2.38
2022-10-13T08:03:09.133Z,3.17
2022-10-13T08:05:10.583Z,2.75
2022-10-13T08:07:12.059Z,3.30
2022-10-13T08:09:13.786Z,2.58
2022-10-13T08:11:17.575Z,2.88
2022-10-13T08:15:24.787Z,2.22
2022-10-13T08:17:28.453Z,2.43
2022-10-13T08:19:32.090Z,2.65
2022-10-13T08:24:00.032Z,2.47
2022-10-13T08:26:03.953Z,1.88
2022-10-13T08:30:10.711Z,2.50
2022-10-13T08:34:17.535Z,2.42
2022-10-13T08:36:20.355Z,2.25
2022-10-13T08:38:23.511Z,1.83
2022-10-13T08:40:25.039Z,1.60
2022-10-13T08:42:27.130Z,1.80
2022-10-13T08:45:39.668Z,1.33
2022-10-13T08:47:30.175Z,1.20
2022-10-13T08:49:31.663Z,1.60
2022-10-13T08:51:33.604Z,1.27
2022-10-13T08:53:36.946Z,1.70
2022-10-13T08:55:43.053Z,1.60
2022-10-13T08:57:44.659Z,2.33
2022-10-13T08:59:46.595Z,1.67
2022-10-13T09:01:49.362Z,2.20
2022-10-13T09:03:53.104Z,2.43
2022-10-13T09:06:11.694Z,2.28
2022-10-13T09:08:16.373Z,2.40
2022-10-13T09:10:18.745Z,2.40
2022-10-13T09:12:27.021Z,3.63
2022-10-13T09:14:29.894Z,3.03
2022-10-13T09:16:34.852Z,2.90
2022-10-13T09:18:37.655Z,2.72
2022-10-13T09:20:40.191Z,3.20
2022-10-13T09:22:42.311Z,3.20
2022-10-13T09:24:43.936Z,3.55
2022-10-13T09:26:46.596Z,2.95
2022-10-13T09:28:48.374Z,2.60
2022-10-13T09:30:58.189Z,2.40
2022-10-13T09:33:14.474Z,2.58
2022-10-13T09:35:22.747Z,2.25
2022-10-13T09:37:25.648Z,2.53
2022-10-13T09:39:27.900Z,2.23
2022-10-13T09:41:30.090Z,2.88
2022-10-13T09:43:33.255Z,1.92
2022-10-13T09:45:34.968Z,1.90
2022-10-13T09:47:36.746Z,1.70
2022-10-13T09:49:44.256Z,1.50
2022-10-13T09:51:45.932Z,1.80
2022-10-13T09:53:47.836Z,4.40
2022-10-13T09:55:49.686Z,2.20
2022-10-13T09:57:52.396Z,2.00
2022-10-13T10:00:14.701Z,1.60
2022-10-13T10:02:19.370Z,1.45
2022-10-13T10:04:24.434Z,1.52
2022-10-13T10:06:27.885Z,2.55
2022-10-13T10:09:05.499Z,1.63
2022-10-13T10:11:15.480Z,1.45
2022-10-13T10:13:16.949Z,1.98
2022-10-13T10:15:26.173Z,1.58
2022-10-13T10:17:27.708Z,2.20
2022-10-13T10:19:41.691Z,1.42
2022-10-13T10:21:50.030Z,1.40
2022-10-13T10:23:54.145Z,1.35
2022-10-13T10:25:57.419Z,1.15
2022-10-13T10:28:01.861Z,1.27
2022-10-13T10:30:21.506Z,0.85
2022-10-13T10:32:25.679Z,1.00
2022-10-13T10:34:27.176Z,1.15
2022-10-13T10:36:41.492Z,1.55
2022-10-13T10:40:54.284Z,0.63
2022-10-13T10:43:08.764Z,0.80
2022-10-13T10:45:30.595Z,1.05
2022-10-13T10:47:40.928Z,0.98
2022-10-13T10:49:43.042Z,1.23
2022-10-13T10:51:45.048Z,0.90
2022-10-13T10:53:52.245Z,1.10
2022-10-13T10:55:56.218Z,1.20
2022-10-13T10:58:12.769Z,0.82
2022-10-13T11:00:16.353Z,0.80
2022-10-13T11:02:33.547Z,1.67
2022-10-13T11:04:38.027Z,0.88
2022-10-13T11:06:39.487Z,1.02
2022-10-13T11:08:42.203Z,1.02
2022-10-13T11:10:43.711Z,0.68
2022-10-13T11:12:51.461Z,1.15
2022-10-13T11:15:06.404Z,1.10
2022-10-13T11:17:16.900Z,1.23
2022-10-13T11:19:33.891Z,0.88
2022-10-13T11:21:54.234Z,0.70
2022-10-13T11:24:01.060Z,0.77
2022-10-13T11:26:27.613Z,0.70
2022-10-13T11:28:49.116Z,0.50
2022-10-13T11:30:51.831Z,0.57
2022-10-13T11:32:56.823Z,0.82
2022-10-13T11:35:05.951Z,0.40
2022-10-13T11:37:16.309Z,0.65
2022-10-13T11:39:19.587Z,0.60
2022-10-13T11:41:27.151Z,0.60
2022-10-13T11:43:47.419Z,0.35
2022-10-13T11:45:50.496Z,0.43
2022-10-13T11:47:58.251Z,0.60
2022-10-13T11:50:04.521Z,0.70
2022-10-13T11:52:32.437Z,0.75
2022-10-13T11:54:34.102Z,0.88
2022-10-13T11:56:53.251Z,0.77
2022-10-13T11:58:54.711Z,1.08
2022-10-13T12:00:57.857Z,1.45
2022-10-13T12:02:59.430Z,0.50
2022-10-13T12:05:00.996Z,0.85
2022-10-13T12:07:07.266Z,0.40
2022-10-13T12:09:19.214Z,0.65
2022-10-13T12:11:31.726Z,0.40
2022-10-13T12:13:34.116Z,0.40
2022-10-13T12:15:41.389Z,0.40
2022-10-13T12:17:44.467Z,0.40
2022-10-13T12:19:45.894Z,0.55
2022-10-13T12:21:51.759Z,0.28
2022-10-13T12:24:06.634Z,0.60
2022-10-13T12:26:08.204Z,0.85
2022-10-13T12:28:16.755Z,0.80
2022-10-13T12:30:21.441Z,0.90
2022-10-13T12:32:25.098Z,0.80
2022-10-13T12:34:35.849Z,0.70
2022-10-13T12:36:37.305Z,1.20
2022-10-13T12:38:42.052Z,0.90
2022-10-13T12:40:43.579Z,0.90
2022-10-13T12:42:45.531Z,0.75
2022-10-13T12:44:47.363Z,0.60
2022-10-13T12:46:52.253Z,0.80
2022-10-13T12:49:03.568Z,0.52
2022-10-13T12:51:16.213Z,0.80
2022-10-13T12:53:21.962Z,0.93
2022-10-13T12:55:23.463Z,0.88
2022-10-13T12:57:35.383Z,0.50
2022-10-13T12:59:40.864Z,2.10
2022-10-13T13:01:42.578Z,1.33
2022-10-13T13:03:44.638Z,1.00
2022-10-13T13:05:51.560Z,1.02
2022-10-13T13:07:54.259Z,0.98
2022-10-13T13:10:08.028Z,1.23
2022-10-13T13:12:12.744Z,1.20
2022-10-13T13:14:32.325Z,0.50
2022-10-13T13:16:33.759Z,0.70
2022-10-13T13:18:41.558Z,0.63
2022-10-13T13:20:43.083Z,1.25
2022-10-13T13:22:44.779Z,0.73
2022-10-13T13:24:46.576Z,1.00
2022-10-13T13:26:48.358Z,0.70
2022-10-13T13:28:54.073Z,0.50
2022-10-13T13:30:55.542Z,1.27
2022-10-13T13:32:56.943Z,0.80
2022-10-13T13:34:58.434Z,0.75
2022-10-13T13:37:02.180Z,0.75
2022-10-13T13:39:03.768Z,0.73
2022-10-13T13:41:05.512Z,0.80
2022-10-13T13:43:08.314Z,0.95
2022-10-13T13:45:13.488Z,0.90
2022-10-13T13:47:17.196Z,0.70
2022-10-13T13:51:20.521Z,0.75
2022-10-13T13:53:22.218Z,0.82
2022-10-13T13:55:24.506Z,1.02
2022-10-13T13:57:26.139Z,0.80
2022-10-13T13:59:27.562Z,0.70
2022-10-13T14:01:29.134Z,0.80
2022-10-13T14:03:31.019Z,0.85
2022-10-13T14:05:32.463Z,0.65
2022-10-13T14:07:34.013Z,0.75
2022-10-13T14:09:35.492Z,1.25
2022-10-13T14:11:37.168Z,0.85
2022-10-13T14:13:38.669Z,0.90
2022-10-13T14:15:40.410Z,1.13
2022-10-13T14:17:41.995Z,1.42
2022-10-13T14:19:43.584Z,1.42
2022-10-13T14:21:46.020Z,0.95
2022-10-13T14:23:47.545Z,0.60
2022-10-13T14:25:49.962Z,1.00
2022-10-13T14:27:54.078Z,0.95
2022-10-13T14:29:59.056Z,0.52
2022-10-13T14:32:03.185Z,1.10
2022-10-13T14:34:06.051Z,0.47
2022-10-13T14:36:10.189Z,0.63
2022-10-13T14:38:13.586Z,0.73
2022-10-13T14:40:17.655Z,0.60
2022-10-13T14:42:20.597Z,0.75
2022-10-13T14:44:23.543Z,0.95
2022-10-13T14:46:26.714Z,0.85
2022-10-13T14:48:31.771Z,1.13
2022-10-13T14:50:34.921Z,0.80
2022-10-13T14:52:36.749Z,0.90
2022-10-13T14:54:42.464Z,0.60
2022-10-13T14:56:46.485Z,0.82
2022-10-13T14:58:48.662Z,0.90
2022-10-13T15:00:50.235Z,0.95
2022-10-13T15:02:52.831Z,1.00
2022-10-13T15:04:54.639Z,0.80
2022-10-13T15:06:56.098Z,0.80
2022-10-13T15:08:57.944Z,0.80
2022-10-13T15:11:00.730Z,1.13
2022-10-13T15:13:02.283Z,0.88
2022-10-13T15:15:03.943Z,0.80
2022-10-13T15:17:05.412Z,0.80
2022-10-13T15:19:06.867Z,0.90
2022-10-13T15:21:08.645Z,1.10
2022-10-13T15:23:10.079Z,1.02
2022-10-13T15:25:11.878Z,1.00
2022-10-13T15:27:13.408Z,2.55
2022-10-13T15:29:14.997Z,2.55
2022-10-13T15:31:17.260Z,2.80
2022-10-13T15:33:19.425Z,3.15
2022-10-13T15:35:20.891Z,2.88
2022-10-13T15:37:22.476Z,3.42
2022-10-13T15:39:23.977Z,3.00
2022-10-13T15:41:25.631Z,3.42
2022-10-13T15:43:27.746Z,3.30
2022-10-13T15:45:29.154Z,2.72
2022-10-13T15:47:30.810Z,2.60
2022-10-13T15:49:35.013Z,2.53
2022-10-13T15:51:36.688Z,3.47
2022-10-13T15:53:38.168Z,2.88
2022-10-13T15:55:40.451Z,2.05
2022-10-13T15:57:42.198Z,2.85
2022-10-13T15:59:43.631Z,2.92
2022-10-13T16:01:45.133Z,2.38
2022-10-13T16:03:46.620Z,3.33
2022-10-13T16:05:48.090Z,2.10
2022-10-13T16:07:49.964Z,2.20
2022-10-13T16:09:51.450Z,2.45
2022-10-13T16:11:53.976Z,1.85
2022-10-13T16:13:55.475Z,2.35
2022-10-13T16:16:00.423Z,2.88
2022-10-13T16:18:02.333Z,2.38
2022-10-13T16:20:04.624Z,2.67
2022-10-13T16:22:06.191Z,1.75
2022-10-13T16:24:07.843Z,1.83
2022-10-13T16:26:09.758Z,1.70
2022-10-13T16:28:11.296Z,1.30
2022-10-13T16:30:12.922Z,1.75
2022-10-13T16:32:14.521Z,1.60
2022-10-13T16:34:16.170Z,1.02
2022-10-13T16:36:18.409Z,1.33
2022-10-13T16:38:19.843Z,1.63
2022-10-13T16:40:21.246Z,1.23
2022-10-13T16:42:22.726Z,1.10
2022-10-13T16:44:24.556Z,1.38
2022-10-13T16:46:26.087Z,1.33
2022-10-13T16:48:31.355Z,1.65
2022-10-13T16:50:32.813Z,1.75
2022-10-13T16:52:34.451Z,2.30
2022-10-13T16:54:36.493Z,1.60
2022-10-13T16:56:37.948Z,1.75
2022-10-13T16:58:44.959Z,1.75
2022-10-13T17:00:46.573Z,3.30
2022-10-13T17:02:49.357Z,2.63
2022-10-13T17:07:06.261Z,2.22
2022-10-13T17:09:07.759Z,2.53
2022-10-13T17:11:10.339Z,1.88
2022-10-13T17:13:11.888Z,1.83
2022-10-13T17:15:13.320Z,1.88
2022-10-13T17:17:14.774Z,1.98
2022-10-13T17:19:16.594Z,1.50
2022-10-13T17:21:18.707Z,1.80
2022-10-13T17:23:20.559Z,2.15
2022-10-13T17:25:22.019Z,2.25
2022-10-13T17:27:23.832Z,2.22
2022-10-13T17:29:25.500Z,2.00
2022-10-13T17:31:26.975Z,2.30
2022-10-13T17:33:29.447Z,2.17
2022-10-13T17:35:31.136Z,2.08
2022-10-13T17:37:32.688Z,2.25
2022-10-13T17:39:43.821Z,1.65
2022-10-13T17:41:47.629Z,1.40
2022-10-13T17:43:51.758Z,1.38
2022-10-13T17:45:53.759Z,2.47
2022-10-13T17:47:58.741Z,2.75
2022-10-13T17:50:00.798Z,2.75
2022-10-13T17:52:03.437Z,2.47
2022-10-13T17:54:05.327Z,3.33
2022-10-13T17:56:08.306Z,4.18
2022-10-13T17:58:10.822Z,2.92
2022-10-13T18:00:14.331Z,4.45
2022-10-13T18:02:16.235Z,3.53
2022-10-13T18:04:18.763Z,3.22
2022-10-13T18:06:20.218Z,4.32
2022-10-13T18:08:22.541Z,5.03
2022-10-13T18:10:24.150Z,4.60
2022-10-13T18:12:26.823Z,4.88
2022-10-13T18:14:30.354Z,4.38
2022-10-13T18:16:31.938Z,4.70
2022-10-13T18:18:35.014Z,4.10
2022-10-13T18:20:39.003Z,4.40
2022-10-13T18:22:40.409Z,4.13
2022-10-13T18:24:42.814Z,4.00
2022-10-13T18:26:44.519Z,3.75
2022-10-13T18:28:47.391Z,3.33
2022-10-13T18:30:49.416Z,4.30
2022-10-13T18:32:52.544Z,4.00
2022-10-13T18:34:56.211Z,3.95
2022-10-13T18:36:58.180Z,4.40
2022-10-13T18:39:04.814Z,4.70
2022-10-13T18:41:06.591Z,5.78
2022-10-13T18:43:08.578Z,4.75
2022-10-13T18:45:10.924Z,5.65
2022-10-13T18:47:12.590Z,5.70
2022-10-13T18:49:15.876Z,8.43
2022-10-13T18:51:18.586Z,11.45
2022-10-13T18:53:20.033Z,11.02
2022-10-13T18:55:21.680Z,8.80
2022-10-13T18:57:23.285Z,8.90
2022-10-13T18:59:25.105Z,10.65
2022-10-13T19:01:27.696Z,8.27
2022-10-13T19:03:29.553Z,9.05
2022-10-13T19:05:30.976Z,8.55
2022-10-13T19:07:36.839Z,7.63
2022-10-13T19:09:40.366Z,7.82
2022-10-13T19:11:41.828Z,6.78
2022-10-13T19:13:44.148Z,9.30
2022-10-13T19:15:46.204Z,7.90
2022-10-13T19:17:47.696Z,10.88
2022-10-13T19:19:49.093Z,16.98
2022-10-13T19:21:51.141Z,17.13
2022-10-13T19:23:55.173Z,15.95
2022-10-13T19:27:58.140Z,17.95
2022-10-13T19:29:59.902Z,15.65
2022-10-13T19:32:01.835Z,23.17
2022-10-13T19:34:03.417Z,22.85
2022-10-13T19:36:06.749Z,22.90
2022-10-13T19:38:08.555Z,21.25
2022-10-13T19:40:11.276Z,24.67
2022-10-13T19:42:12.684Z,23.60
2022-10-13T19:44:15.026Z,19.95
2022-10-13T19:46:17.001Z,20.55
2022-10-13T19:48:18.972Z,18.27
2022-10-13T19:50:21.317Z,18.88
2022-10-13T19:52:24.873Z,20.55
2022-10-13T19:54:30.151Z,21.95
2022-10-13T19:56:34.622Z,21.27
2022-10-13T19:58:36.353Z,17.45
2022-10-13T20:00:38.088Z,19.55
2022-10-13T20:02:39.992Z,21.10
2022-10-13T20:04:41.464Z,21.50
2022-10-13T20:06:43.284Z,20.05
2022-10-13T20:08:45.450Z,19.60
2022-10-13T20:10:46.864Z,19.48
2022-10-13T20:12:48.580Z,21.80
2022-10-13T20:14:50.431Z,22.20
2022-10-13T20:16:52.008Z,20.50
2022-10-13T20:18:55.043Z,21.35
2022-10-13T20:20:56.695Z,19.00
2022-10-13T20:22:58.181Z,17.33
2022-10-13T20:24:59.848Z,17.15
2022-10-13T20:27:01.370Z,16.33
2022-10-13T20:29:03.341Z,16.58
2022-10-13T20:31:05.429Z,15.77
2022-10-13T20:33:06.956Z,14.15
2022-10-13T20:35:08.574Z,13.10
2022-10-13T20:37:10.371Z,9.77
2022-10-13T20:39:11.780Z,9.43
2022-10-13T20:41:18.886Z,8.43
2022-10-13T20:43:25.801Z,9.18
2022-10-13T20:45:28.390Z,7.38
2022-10-13T20:47:34.400Z,8.10
2022-10-13T20:49:37.020Z,7.47
2022-10-13T20:51:39.693Z,9.02
2022-10-13T20:53:43.445Z,9.23
2022-10-13T20:57:50.735Z,8.50
2022-10-13T20:59:53.839Z,7.20
2022-10-13T21:01:55.539Z,9.55
2022-10-13T21:03:58.787Z,8.77
2022-10-13T21:06:02.034Z,8.98
2022-10-13T21:08:03.465Z,8.90
2022-10-13T21:10:06.810Z,9.35
2022-10-13T21:12:08.629Z,10.68
2022-10-13T21:14:12.102Z,9.88
2022-10-13T21:16:16.332Z,7.80
2022-10-13T21:20:21.165Z,8.85
2022-10-13T21:22:23.045Z,10.32
2022-10-13T21:24:25.443Z,12.13
2022-10-13T21:26:29.225Z,9.10
2022-10-13T21:28:31.229Z,9.20
2022-10-13T21:30:33.272Z,9.20
2022-10-13T21:32:35.863Z,7.65
2022-10-13T21:34:38.698Z,8.75
2022-10-13T21:36:44.378Z,9.40
2022-10-13T21:38:46.926Z,9.10
2022-10-13T21:40:53.755Z,8.05
2022-10-13T21:42:55.656Z,7.13
2022-10-13T21:44:57.100Z,7.30
2022-10-13T21:46:58.547Z,7.10
2022-10-13T21:49:01.883Z,8.05
2022-10-13T21:51:21.793Z,8.52
2022-10-13T21:53:48.232Z,10.02
2022-10-13T21:56:15.202Z,8.48
2022-10-13T21:58:42.307Z,8.10
2022-10-13T22:00:43.935Z,8.30
2022-10-13T22:02:45.423Z,8.95
2022-10-13T22:04:46.829Z,9.18
2022-10-13T22:06:48.303Z,9.40
2022-10-13T22:08:50.586Z,10.75
2022-10-13T22:10:56.588Z,11.40
2022-10-13T22:12:58.016Z,8.80
2022-10-13T22:14:59.567Z,9.52
2022-10-13T22:17:01.105Z,11.13
2022-10-13T22:19:02.673Z,12.88
2022-10-13T22:21:05.281Z,13.70
2022-10-13T22:23:07.043Z,10.52
2022-10-13T22:25:08.963Z,11.98
2022-10-13T22:27:10.703Z,16.13
2022-10-13T22:29:13.208Z,13.43
2022-10-13T22:31:15.015Z,11.02
2022-10-13T22:33:16.669Z,10.73
2022-10-13T22:35:18.165Z,9.95
2022-10-13T22:37:19.889Z,11.00
2022-10-13T22:39:21.536Z,10.05
2022-10-13T22:41:22.976Z,12.15
2022-10-13T22:43:24.454Z,12.25
2022-10-13T22:45:25.867Z,9.55
2022-10-13T22:47:27.331Z,8.52
2022-10-13T22:49:28.757Z,10.32
2022-10-13T22:51:31.251Z,12.80
2022-10-13T22:53:33.399Z,11.02
2022-10-13T22:55:34.819Z,9.07
2022-10-13T22:57:36.423Z,9.75
2022-10-13T22:59:37.887Z,9.93
2022-10-13T23:01:39.373Z,10.05
2022-10-13T23:03:41.513Z,9.57
2022-10-13T23:05:43.400Z,10.73
2022-10-13T23:07:44.852Z,12.48
2022-10-13T23:09:46.323Z,8.38
2022-10-13T23:11:47.781Z,8.10
2022-10-13T23:13:49.551Z,9.48
2022-10-13T23:15:51.057Z,9.95
2022-10-13T23:17:52.544Z,9.40
2022-10-13T23:19:54.051Z,8.93
2022-10-13T23:21:55.520Z,8.70
2022-10-13T23:24:01.328Z,6.85
2022-10-13T23:26:04.083Z,9.50
2022-10-13T23:28:05.652Z,9.25
2022-10-13T23:30:07.458Z,12.98
2022-10-13T23:32:09.910Z,10.98
2022-10-13T23:34:11.655Z,11.80
2022-10-13T23:36:14.874Z,8.93
2022-10-13T23:38:16.433Z,7.63
2022-10-13T23:40:17.937Z,7.20
2022-10-13T23:42:19.362Z,6.93
2022-10-13T23:44:20.842Z,8.70
2022-10-13T23:46:22.733Z,9.20
2022-10-13T23:48:24.290Z,10.07
2022-10-13T23:50:25.703Z,8.98
2022-10-13T23:52:27.231Z,9.07
2022-10-13T23:54:29.914Z,9.30
2022-10-13T23:56:32.176Z,8.02
2022-10-13T23:58:39.358Z,7.82
